Terminal Aerodrome Forecast
Issued by NWS

Home | Current Version | Previous Version | Text Only | Print | Product List | Glossary On
Versions: 1 2 3 4 5 6 7 8 9 10 11 12 13 14 15 16 17 18 19 20 21 22 23 24 25 26 27 28
000
FTUS44 KOUN 270522
TAFLAW
TAF
KLAW 270522Z 2706/2806 13007KT P6SM FEW025 BKN200
     FM271600 17012KT P6SM BKN040
     FM272100 12015KT P6SM OVC035 PROB30 2721/2724 3SM TSRA BKN025CB
      OVC050
     FM280000 11018KT P6SM OVC030 PROB30 2800/2805 2SM TSRA BKN015CB
      OVC040=

USA.gov is the U.S. government's official web portal to all federal, state and local government web resources and services.